sensor_id;sensor_type;location;lat;lon;timestamp;temperature;humidity
19363;DHT22;9817;50.80926400;5.16316200;2023-09-19T00:02:01;16.80;99.90
19363;DHT22;9817;50.80926400;5.16316200;2023-09-19T00:04:34;16.80;99.90
19363;DHT22;9817;50.80926400;5.16316200;2023-09-19T00:07:00;16.80;99.90
19363;DHT22;9817;50.80926400;5.16316200;2023-09-19T00:09:28;16.60;99.90
19363;DHT22;9817;50.80926400;5.16316200;2023-09-19T00:11:53;16.60;99.90
19363;DHT22;9817;50.80926400;5.16316200;2023-09-19T00:14:19;16.80;99.90
19363;DHT22;9817;50.80926400;5.16316200;2023-09-19T00:16:45;16.80;99.90
19363;DHT22;9817;50.80926400;5.16316200;2023-09-19T00:19:12;16.70;99.90
19363;DHT22;9817;50.80926400;5.16316200;2023-09-19T00:21:39;16.70;99.90
19363;DHT22;9817;50.80926400;5.16316200;2023-09-19T00:24:06;16.60;99.90
19363;DHT22;9817;50.80926400;5.16316200;2023-09-19T00:26:32;16.60;99.90
19363;DHT22;9817;50.80926400;5.16316200;2023-09-19T00:29:00;16.60;99.90
19363;DHT22;9817;50.80926400;5.16316200;2023-09-19T00:31:31;16.80;99.90
19363;DHT22;9817;50.80926400;5.16316200;2023-09-19T00:33:57;16.70;99.90
19363;DHT22;9817;50.80926400;5.16316200;2023-09-19T00:36:28;16.60;99.90
19363;DHT22;9817;50.80926400;5.16316200;2023-09-19T00:38:54;16.70;99.90
19363;DHT22;9817;50.80926400;5.16316200;2023-09-19T00:41:20;16.60;99.90
19363;DHT22;9817;50.80926400;5.16316200;2023-09-19T00:43:46;16.60;99.90
19363;DHT22;9817;50.80926400;5.16316200;2023-09-19T00:46:17;16.60;99.90
19363;DHT22;9817;50.80926400;5.16316200;2023-09-19T00:48:43;16.70;99.90
19363;DHT22;9817;50.80926400;5.16316200;2023-09-19T00:51:09;16.60;99.90
19363;DHT22;9817;50.80926400;5.16316200;2023-09-19T00:53:36;16.50;99.90
19363;DHT22;9817;50.80926400;5.16316200;2023-09-19T00:56:03;16.50;99.90
19363;DHT22;9817;50.80926400;5.16316200;2023-09-19T00:58:33;16.60;99.90
19363;DHT22;9817;50.80926400;5.16316200;2023-09-19T01:01:01;16.50;99.90
19363;DHT22;9817;50.80926400;5.16316200;2023-09-19T01:03:27;16.60;99.90
19363;DHT22;9817;50.80926400;5.16316200;2023-09-19T01:05:53;16.60;99.90
19363;DHT22;9817;50.80926400;5.16316200;2023-09-19T01:08:19;16.60;99.90
19363;DHT22;9817;50.80926400;5.16316200;2023-09-19T01:14:02;16.70;99.90
19363;DHT22;9817;50.80926400;5.16316200;2023-09-19T01:19:20;16.50;99.90
19363;DHT22;9817;50.80926400;5.16316200;2023-09-19T01:22:02;16.40;99.90
19363;DHT22;9817;50.80926400;5.16316200;2023-09-19T01:27:34;16.50;99.90
19363;DHT22;9817;50.80926400;5.16316200;2023-09-19T01:30:18;16.50;99.90
19363;DHT22;9817;50.80926400;5.16316200;2023-09-19T01:32:51;16.40;99.90
19363;DHT22;9817;50.80926400;5.16316200;2023-09-19T01:35:18;16.50;99.90
19363;DHT22;9817;50.80926400;5.16316200;2023-09-19T01:37:44;16.40;99.90
19363;DHT22;9817;50.80926400;5.16316200;2023-09-19T01:40:12;16.30;99.90
19363;DHT22;9817;50.80926400;5.16316200;2023-09-19T01:45:34;16.40;99.90
19363;DHT22;9817;50.80926400;5.16316200;2023-09-19T01:48:46;16.40;99.90
19363;DHT22;9817;50.80926400;5.16316200;2023-09-19T01:51:37;16.50;99.90
19363;DHT22;9817;50.80926400;5.16316200;2023-09-19T01:54:10;16.40;99.90
19363;DHT22;9817;50.80926400;5.16316200;2023-09-19T01:56:50;16.40;99.90
19363;DHT22;9817;50.80926400;5.16316200;2023-09-19T01:59:24;16.60;99.90
19363;DHT22;9817;50.80926400;5.16316200;2023-09-19T02:01:53;16.50;99.90
19363;DHT22;9817;50.80926400;5.16316200;2023-09-19T02:04:19;16.60;99.90
19363;DHT22;9817;50.80926400;5.16316200;2023-09-19T02:06:45;16.40;99.90
19363;DHT22;9817;50.80926400;5.16316200;2023-09-19T02:09:13;16.40;99.90
19363;DHT22;9817;50.80926400;5.16316200;2023-09-19T02:11:40;16.40;99.90
19363;DHT22;9817;50.80926400;5.16316200;2023-09-19T02:14:06;16.30;99.90
19363;DHT22;9817;50.80926400;5.16316200;2023-09-19T02:16:34;16.30;99.90
19363;DHT22;9817;50.80926400;5.16316200;2023-09-19T02:19:00;16.20;99.90
19363;DHT22;9817;50.80926400;5.16316200;2023-09-19T02:21:26;16.30;99.90
19363;DHT22;9817;50.80926400;5.16316200;2023-09-19T02:23:55;16.30;99.90
19363;DHT22;9817;50.80926400;5.16316200;2023-09-19T02:26:21;16.40;99.90
19363;DHT22;9817;50.80926400;5.16316200;2023-09-19T02:28:47;16.30;99.90
19363;DHT22;9817;50.80926400;5.16316200;2023-09-19T02:31:13;16.20;99.90
19363;DHT22;9817;50.80926400;5.16316200;2023-09-19T02:33:38;16.20;99.90
19363;DHT22;9817;50.80926400;5.16316200;2023-09-19T02:36:04;16.20;99.90
19363;DHT22;9817;50.80926400;5.16316200;2023-09-19T02:38:30;16.10;99.90
19363;DHT22;9817;50.80926400;5.16316200;2023-09-19T02:40:56;16.20;99.90
19363;DHT22;9817;50.80926400;5.16316200;2023-09-19T02:43:22;16.20;99.90
19363;DHT22;9817;50.80926400;5.16316200;2023-09-19T02:45:49;16.20;99.90
19363;DHT22;9817;50.80926400;5.16316200;2023-09-19T02:48:22;16.10;99.90
19363;DHT22;9817;50.80926400;5.16316200;2023-09-19T02:50:50;16.30;99.90
19363;DHT22;9817;50.80926400;5.16316200;2023-09-19T02:53:16;16.30;99.90
19363;DHT22;9817;50.80926400;5.16316200;2023-09-19T02:55:41;16.30;99.90
19363;DHT22;9817;50.80926400;5.16316200;2023-09-19T02:58:08;16.20;99.90
19363;DHT22;9817;50.80926400;5.16316200;2023-09-19T03:00:36;16.20;99.90
19363;DHT22;9817;50.80926400;5.16316200;2023-09-19T03:03:02;16.20;99.90
19363;DHT22;9817;50.80926400;5.16316200;2023-09-19T03:05:28;16.10;99.90
19363;DHT22;9817;50.80926400;5.16316200;2023-09-19T03:07:56;16.10;99.90
19363;DHT22;9817;50.80926400;5.16316200;2023-09-19T03:10:22;16.10;99.90
19363;DHT22;9817;50.80926400;5.16316200;2023-09-19T03:12:50;16.10;99.90
19363;DHT22;9817;50.80926400;5.16316200;2023-09-19T03:15:16;16.20;99.90
19363;DHT22;9817;50.80926400;5.16316200;2023-09-19T03:17:44;16.10;99.90
19363;DHT22;9817;50.80926400;5.16316200;2023-09-19T03:20:11;16.00;99.90
19363;DHT22;9817;50.80926400;5.16316200;2023-09-19T03:22:38;15.90;99.90
19363;DHT22;9817;50.80926400;5.16316200;2023-09-19T03:25:06;15.80;99.90
19363;DHT22;9817;50.80926400;5.16316200;2023-09-19T03:27:36;15.90;99.90
19363;DHT22;9817;50.80926400;5.16316200;2023-09-19T03:30:03;15.90;99.90
19363;DHT22;9817;50.80926400;5.16316200;2023-09-19T03:32:34;16.00;99.90
19363;DHT22;9817;50.80926400;5.16316200;2023-09-19T03:35:00;16.10;99.90
19363;DHT22;9817;50.80926400;5.16316200;2023-09-19T03:37:25;16.10;99.90
19363;DHT22;9817;50.80926400;5.16316200;2023-09-19T03:39:51;16.10;99.90
19363;DHT22;9817;50.80926400;5.16316200;2023-09-19T03:42:17;16.10;99.90
19363;DHT22;9817;50.80926400;5.16316200;2023-09-19T03:44:43;16.10;99.90
19363;DHT22;9817;50.80926400;5.16316200;2023-09-19T03:47:08;16.10;99.90
19363;DHT22;9817;50.80926400;5.16316200;2023-09-19T03:49:34;16.10;99.90
19363;DHT22;9817;50.80926400;5.16316200;2023-09-19T03:51:59;16.20;99.90
19363;DHT22;9817;50.80926400;5.16316200;2023-09-19T03:54:25;16.30;99.90
19363;DHT22;9817;50.80926400;5.16316200;2023-09-19T03:56:51;16.20;99.90
19363;DHT22;9817;50.80926400;5.16316200;2023-09-19T03:59:16;16.10;99.90
19363;DHT22;9817;50.80926400;5.16316200;2023-09-19T04:01:43;16.20;99.90
19363;DHT22;9817;50.80926400;5.16316200;2023-09-19T04:04:09;16.10;99.90
19363;DHT22;9817;50.80926400;5.16316200;2023-09-19T04:06:35;16.00;99.90
19363;DHT22;9817;50.80926400;5.16316200;2023-09-19T04:09:01;16.00;99.90
19363;DHT22;9817;50.80926400;5.16316200;2023-09-19T04:11:29;16.00;99.90
19363;DHT22;9817;50.80926400;5.16316200;2023-09-19T04:13:55;16.00;99.90
19363;DHT22;9817;50.80926400;5.16316200;2023-09-19T04:16:21;16.00;99.90
19363;DHT22;9817;50.80926400;5.16316200;2023-09-19T04:18:47;15.90;99.90
19363;DHT22;9817;50.80926400;5.16316200;2023-09-19T04:21:13;15.90;99.90
19363;DHT22;9817;50.80926400;5.16316200;2023-09-19T04:23:38;15.90;99.90
19363;DHT22;9817;50.80926400;5.16316200;2023-09-19T04:26:04;15.90;99.90
19363;DHT22;9817;50.80926400;5.16316200;2023-09-19T04:28:31;15.80;99.90
19363;DHT22;9817;50.80926400;5.16316200;2023-09-19T04:30:57;15.90;99.90
19363;DHT22;9817;50.80926400;5.16316200;2023-09-19T04:33:25;15.90;99.90
19363;DHT22;9817;50.80926400;5.16316200;2023-09-19T04:35:50;15.80;99.90
19363;DHT22;9817;50.80926400;5.16316200;2023-09-19T04:38:20;15.70;99.90
19363;DHT22;9817;50.80926400;5.16316200;2023-09-19T04:40:47;15.70;99.90
19363;DHT22;9817;50.80926400;5.16316200;2023-09-19T04:43:12;15.60;99.90
19363;DHT22;9817;50.80926400;5.16316200;2023-09-19T04:45:39;15.60;99.90
19363;DHT22;9817;50.80926400;5.16316200;2023-09-19T04:48:05;15.60;99.90
19363;DHT22;9817;50.80926400;5.16316200;2023-09-19T04:50:34;15.60;99.90
19363;DHT22;9817;50.80926400;5.16316200;2023-09-19T04:53:00;15.70;99.90
19363;DHT22;9817;50.80926400;5.16316200;2023-09-19T04:55:26;15.70;99.90
19363;DHT22;9817;50.80926400;5.16316200;2023-09-19T04:57:53;15.70;99.90
19363;DHT22;9817;50.80926400;5.16316200;2023-09-19T05:00:22;15.70;99.90
19363;DHT22;9817;50.80926400;5.16316200;2023-09-19T05:02:56;15.70;99.90
19363;DHT22;9817;50.80926400;5.16316200;2023-09-19T05:05:22;15.70;99.90
19363;DHT22;9817;50.80926400;5.16316200;2023-09-19T05:07:49;15.70;99.90
19363;DHT22;9817;50.80926400;5.16316200;2023-09-19T05:10:16;15.70;99.90
19363;DHT22;9817;50.80926400;5.16316200;2023-09-19T05:12:43;15.70;99.90
19363;DHT22;9817;50.80926400;5.16316200;2023-09-19T05:15:12;15.70;99.90
19363;DHT22;9817;50.80926400;5.16316200;2023-09-19T05:17:38;15.70;99.90
19363;DHT22;9817;50.80926400;5.16316200;2023-09-19T05:20:05;15.70;99.90
19363;DHT22;9817;50.80926400;5.16316200;2023-09-19T05:23:00;15.60;99.90
19363;DHT22;9817;50.80926400;5.16316200;2023-09-19T05:25:28;15.50;99.90
19363;DHT22;9817;50.80926400;5.16316200;2023-09-19T05:27:56;15.60;99.90
19363;DHT22;9817;50.80926400;5.16316200;2023-09-19T05:30:23;15.60;99.90
19363;DHT22;9817;50.80926400;5.16316200;2023-09-19T05:32:49;15.50;99.90
19363;DHT22;9817;50.80926400;5.16316200;2023-09-19T05:35:15;15.40;99.90
19363;DHT22;9817;50.80926400;5.16316200;2023-09-19T05:37:40;15.40;99.90
19363;DHT22;9817;50.80926400;5.16316200;2023-09-19T05:40:07;15.50;99.90
19363;DHT22;9817;50.80926400;5.16316200;2023-09-19T05:42:35;15.50;99.90
19363;DHT22;9817;50.80926400;5.16316200;2023-09-19T05:45:01;15.40;99.90
19363;DHT22;9817;50.80926400;5.16316200;2023-09-19T05:47:27;15.40;99.90
19363;DHT22;9817;50.80926400;5.16316200;2023-09-19T05:49:52;15.60;99.90
19363;DHT22;9817;50.80926400;5.16316200;2023-09-19T05:52:19;15.70;99.90
19363;DHT22;9817;50.80926400;5.16316200;2023-09-19T05:54:45;15.70;99.90
19363;DHT22;9817;50.80926400;5.16316200;2023-09-19T05:57:11;15.60;99.90
19363;DHT22;9817;50.80926400;5.16316200;2023-09-19T05:59:37;15.70;99.90
19363;DHT22;9817;50.80926400;5.16316200;2023-09-19T06:02:05;15.80;99.90
19363;DHT22;9817;50.80926400;5.16316200;2023-09-19T06:04:31;15.80;99.90
19363;DHT22;9817;50.80926400;5.16316200;2023-09-19T06:06:57;15.90;99.90
19363;DHT22;9817;50.80926400;5.16316200;2023-09-19T06:09:23;16.00;99.90
19363;DHT22;9817;50.80926400;5.16316200;2023-09-19T06:11:49;16.00;99.90
19363;DHT22;9817;50.80926400;5.16316200;2023-09-19T06:14:15;15.90;99.90
19363;DHT22;9817;50.80926400;5.16316200;2023-09-19T06:16:43;15.90;99.90
19363;DHT22;9817;50.80926400;5.16316200;2023-09-19T06:19:09;15.80;99.90
19363;DHT22;9817;50.80926400;5.16316200;2023-09-19T06:21:36;15.90;99.90
19363;DHT22;9817;50.80926400;5.16316200;2023-09-19T06:24:02;15.90;99.90
19363;DHT22;9817;50.80926400;5.16316200;2023-09-19T06:26:28;15.80;99.90
19363;DHT22;9817;50.80926400;5.16316200;2023-09-19T06:28:55;15.90;99.90
19363;DHT22;9817;50.80926400;5.16316200;2023-09-19T06:31:21;15.90;99.90
19363;DHT22;9817;50.80926400;5.16316200;2023-09-19T06:33:48;16.10;99.90
19363;DHT22;9817;50.80926400;5.16316200;2023-09-19T06:36:14;16.30;99.90
19363;DHT22;9817;50.80926400;5.16316200;2023-09-19T06:38:40;16.30;99.90
19363;DHT22;9817;50.80926400;5.16316200;2023-09-19T06:41:06;16.30;99.90
19363;DHT22;9817;50.80926400;5.16316200;2023-09-19T06:43:35;16.30;99.90
19363;DHT22;9817;50.80926400;5.16316200;2023-09-19T06:46:01;16.20;99.90
19363;DHT22;9817;50.80926400;5.16316200;2023-09-19T06:48:27;16.30;99.90
19363;DHT22;9817;50.80926400;5.16316200;2023-09-19T06:50:55;16.30;99.90
19363;DHT22;9817;50.80926400;5.16316200;2023-09-19T06:53:21;16.30;99.90
19363;DHT22;9817;50.80926400;5.16316200;2023-09-19T06:55:50;16.40;99.90
19363;DHT22;9817;50.80926400;5.16316200;2023-09-19T06:58:15;16.50;99.90
19363;DHT22;9817;50.80926400;5.16316200;2023-09-19T07:00:42;16.70;99.90
19363;DHT22;9817;50.80926400;5.16316200;2023-09-19T07:03:08;16.70;99.90
19363;DHT22;9817;50.80926400;5.16316200;2023-09-19T07:05:37;16.80;99.90
19363;DHT22;9817;50.80926400;5.16316200;2023-09-19T07:08:05;16.70;99.90
19363;DHT22;9817;50.80926400;5.16316200;2023-09-19T07:10:32;16.80;99.90
19363;DHT22;9817;50.80926400;5.16316200;2023-09-19T07:13:05;16.90;99.90
19363;DHT22;9817;50.80926400;5.16316200;2023-09-19T07:15:35;16.90;99.90
19363;DHT22;9817;50.80926400;5.16316200;2023-09-19T07:18:14;16.80;99.90
19363;DHT22;9817;50.80926400;5.16316200;2023-09-19T07:20:41;16.80;99.90
19363;DHT22;9817;50.80926400;5.16316200;2023-09-19T07:23:11;16.90;99.90
19363;DHT22;9817;50.80926400;5.16316200;2023-09-19T07:25:39;17.20;99.90
19363;DHT22;9817;50.80926400;5.16316200;2023-09-19T07:28:05;17.20;99.90
19363;DHT22;9817;50.80926400;5.16316200;2023-09-19T07:30:31;17.10;99.90
19363;DHT22;9817;50.80926400;5.16316200;2023-09-19T07:32:56;17.20;99.90
19363;DHT22;9817;50.80926400;5.16316200;2023-09-19T07:35:22;17.20;99.90
19363;DHT22;9817;50.80926400;5.16316200;2023-09-19T07:37:49;17.10;99.90
19363;DHT22;9817;50.80926400;5.16316200;2023-09-19T07:40:18;17.20;99.90
19363;DHT22;9817;50.80926400;5.16316200;2023-09-19T07:42:44;17.30;99.90
19363;DHT22;9817;50.80926400;5.16316200;2023-09-19T07:45:12;17.30;99.90
19363;DHT22;9817;50.80926400;5.16316200;2023-09-19T07:47:49;17.30;99.90
19363;DHT22;9817;50.80926400;5.16316200;2023-09-19T07:50:17;17.30;99.90
19363;DHT22;9817;50.80926400;5.16316200;2023-09-19T07:52:45;17.40;99.90
19363;DHT22;9817;50.80926400;5.16316200;2023-09-19T07:55:11;17.50;99.90
19363;DHT22;9817;50.80926400;5.16316200;2023-09-19T07:57:43;17.60;99.90
19363;DHT22;9817;50.80926400;5.16316200;2023-09-19T08:00:10;17.70;99.90
19363;DHT22;9817;50.80926400;5.16316200;2023-09-19T08:02:39;17.70;99.90
19363;DHT22;9817;50.80926400;5.16316200;2023-09-19T08:05:06;17.80;99.90
19363;DHT22;9817;50.80926400;5.16316200;2023-09-19T08:07:33;18.00;99.90
19363;DHT22;9817;50.80926400;5.16316200;2023-09-19T08:09:58;18.00;99.90
19363;DHT22;9817;50.80926400;5.16316200;2023-09-19T08:12:24;18.00;99.90
19363;DHT22;9817;50.80926400;5.16316200;2023-09-19T08:14:50;18.20;99.90
19363;DHT22;9817;50.80926400;5.16316200;2023-09-19T08:17:16;18.30;99.90
19363;DHT22;9817;50.80926400;5.16316200;2023-09-19T08:19:42;18.40;99.90
19363;DHT22;9817;50.80926400;5.16316200;2023-09-19T08:22:10;18.20;99.90
19363;DHT22;9817;50.80926400;5.16316200;2023-09-19T08:24:36;18.10;99.90
19363;DHT22;9817;50.80926400;5.16316200;2023-09-19T08:27:03;18.10;99.90
19363;DHT22;9817;50.80926400;5.16316200;2023-09-19T08:29:30;18.20;99.90
19363;DHT22;9817;50.80926400;5.16316200;2023-09-19T08:31:59;18.30;99.90
19363;DHT22;9817;50.80926400;5.16316200;2023-09-19T08:34:25;18.30;99.90
19363;DHT22;9817;50.80926400;5.16316200;2023-09-19T08:36:54;18.40;99.90
19363;DHT22;9817;50.80926400;5.16316200;2023-09-19T08:39:24;18.30;99.90
19363;DHT22;9817;50.80926400;5.16316200;2023-09-19T08:41:56;18.40;99.90
19363;DHT22;9817;50.80926400;5.16316200;2023-09-19T08:44:22;18.60;99.90
19363;DHT22;9817;50.80926400;5.16316200;2023-09-19T08:46:49;18.60;99.90
19363;DHT22;9817;50.80926400;5.16316200;2023-09-19T08:49:27;18.70;99.90
19363;DHT22;9817;50.80926400;5.16316200;2023-09-19T08:52:15;18.70;99.90
19363;DHT22;9817;50.80926400;5.16316200;2023-09-19T08:54:42;18.80;99.90
19363;DHT22;9817;50.80926400;5.16316200;2023-09-19T08:57:09;18.90;99.90
19363;DHT22;9817;50.80926400;5.16316200;2023-09-19T08:59:39;18.80;99.90
19363;DHT22;9817;50.80926400;5.16316200;2023-09-19T09:02:12;19.20;99.90
19363;DHT22;9817;50.80926400;5.16316200;2023-09-19T09:04:41;19.40;99.90
19363;DHT22;9817;50.80926400;5.16316200;2023-09-19T09:07:12;19.40;99.90
19363;DHT22;9817;50.80926400;5.16316200;2023-09-19T09:09:39;19.60;99.90
19363;DHT22;9817;50.80926400;5.16316200;2023-09-19T09:12:17;19.80;99.90
19363;DHT22;9817;50.80926400;5.16316200;2023-09-19T09:14:45;19.80;99.90
19363;DHT22;9817;50.80926400;5.16316200;2023-09-19T09:17:18;20.00;99.90
19363;DHT22;9817;50.80926400;5.16316200;2023-09-19T09:19:47;20.00;99.90
19363;DHT22;9817;50.80926400;5.16316200;2023-09-19T09:22:13;20.30;99.90
19363;DHT22;9817;50.80926400;5.16316200;2023-09-19T09:24:52;20.50;99.90
19363;DHT22;9817;50.80926400;5.16316200;2023-09-19T09:27:20;20.70;99.90
19363;DHT22;9817;50.80926400;5.16316200;2023-09-19T09:29:47;21.00;99.90
19363;DHT22;9817;50.80926400;5.16316200;2023-09-19T09:34:58;21.50;99.90
19363;DHT22;9817;50.80926400;5.16316200;2023-09-19T09:37:25;21.40;99.90
19363;DHT22;9817;50.80926400;5.16316200;2023-09-19T09:40:02;21.10;99.90
19363;DHT22;9817;50.80926400;5.16316200;2023-09-19T09:42:40;21.10;99.90
19363;DHT22;9817;50.80926400;5.16316200;2023-09-19T09:48:02;20.90;99.90
19363;DHT22;9817;50.80926400;5.16316200;2023-09-19T09:50:48;20.80;99.90
19363;DHT22;9817;50.80926400;5.16316200;2023-09-19T09:53:27;20.80;99.90
19363;DHT22;9817;50.80926400;5.16316200;2023-09-19T09:56:02;20.90;99.90
19363;DHT22;9817;50.80926400;5.16316200;2023-09-19T09:58:34;21.10;99.90
19363;DHT22;9817;50.80926400;5.16316200;2023-09-19T10:01:01;20.90;99.90
19363;DHT22;9817;50.80926400;5.16316200;2023-09-19T10:03:41;20.90;99.90
19363;DHT22;9817;50.80926400;5.16316200;2023-09-19T10:06:14;20.70;99.90
19363;DHT22;9817;50.80926400;5.16316200;2023-09-19T10:09:07;20.60;99.90
19363;DHT22;9817;50.80926400;5.16316200;2023-09-19T10:11:41;20.60;99.90
19363;DHT22;9817;50.80926400;5.16316200;2023-09-19T10:14:10;20.80;99.90
19363;DHT22;9817;50.80926400;5.16316200;2023-09-19T10:16:40;20.70;99.90
19363;DHT22;9817;50.80926400;5.16316200;2023-09-19T10:19:07;20.20;99.90
19363;DHT22;9817;50.80926400;5.16316200;2023-09-19T10:21:36;20.30;99.90
19363;DHT22;9817;50.80926400;5.16316200;2023-09-19T10:24:03;20.20;99.90
19363;DHT22;9817;50.80926400;5.16316200;2023-09-19T10:26:34;20.20;99.90
19363;DHT22;9817;50.80926400;5.16316200;2023-09-19T10:29:01;20.50;99.90
19363;DHT22;9817;50.80926400;5.16316200;2023-09-19T10:31:29;20.50;99.90
19363;DHT22;9817;50.80926400;5.16316200;2023-09-19T10:34:03;20.40;99.90
19363;DHT22;9817;50.80926400;5.16316200;2023-09-19T10:36:33;20.30;99.90
19363;DHT22;9817;50.80926400;5.16316200;2023-09-19T10:39:02;20.30;99.90
19363;DHT22;9817;50.80926400;5.16316200;2023-09-19T10:41:32;20.00;99.90
19363;DHT22;9817;50.80926400;5.16316200;2023-09-19T10:44:03;20.00;99.90
19363;DHT22;9817;50.80926400;5.16316200;2023-09-19T10:46:32;20.10;99.90
19363;DHT22;9817;50.80926400;5.16316200;2023-09-19T10:49:01;20.20;99.90
19363;DHT22;9817;50.80926400;5.16316200;2023-09-19T10:51:39;20.40;99.90
19363;DHT22;9817;50.80926400;5.16316200;2023-09-19T10:54:13;20.60;99.90
19363;DHT22;9817;50.80926400;5.16316200;2023-09-19T10:56:49;20.80;99.90
19363;DHT22;9817;50.80926400;5.16316200;2023-09-19T10:59:20;20.80;99.90
19363;DHT22;9817;50.80926400;5.16316200;2023-09-19T11:04:30;21.00;99.90
19363;DHT22;9817;50.80926400;5.16316200;2023-09-19T11:09:47;20.80;99.90
19363;DHT22;9817;50.80926400;5.16316200;2023-09-19T11:14:58;20.80;99.90
19363;DHT22;9817;50.80926400;5.16316200;2023-09-19T11:17:34;20.80;99.90
19363;DHT22;9817;50.80926400;5.16316200;2023-09-19T11:30:50;21.30;99.90
19363;DHT22;9817;50.80926400;5.16316200;2023-09-19T11:33:23;21.20;99.90
19363;DHT22;9817;50.80926400;5.16316200;2023-09-19T11:36:07;21.20;99.90
19363;DHT22;9817;50.80926400;5.16316200;2023-09-19T11:49:31;21.30;99.90
19363;DHT22;9817;50.80926400;5.16316200;2023-09-19T11:52:00;21.30;99.90
19363;DHT22;9817;50.80926400;5.16316200;2023-09-19T11:54:27;21.40;99.90
19363;DHT22;9817;50.80926400;5.16316200;2023-09-19T11:56:58;21.60;99.90
19363;DHT22;9817;50.80926400;5.16316200;2023-09-19T11:59:26;21.70;99.90
19363;DHT22;9817;50.80926400;5.16316200;2023-09-19T12:02:04;21.70;99.90
19363;DHT22;9817;50.80926400;5.16316200;2023-09-19T12:04:44;21.70;99.90
19363;DHT22;9817;50.80926400;5.16316200;2023-09-19T12:07:15;21.50;99.90
19363;DHT22;9817;50.80926400;5.16316200;2023-09-19T12:09:42;21.50;99.90
19363;DHT22;9817;50.80926400;5.16316200;2023-09-19T12:12:10;21.40;99.90
19363;DHT22;9817;50.80926400;5.16316200;2023-09-19T12:14:38;21.60;99.90
19363;DHT22;9817;50.80926400;5.16316200;2023-09-19T12:17:04;21.50;99.90
19363;DHT22;9817;50.80926400;5.16316200;2023-09-19T12:19:30;21.40;99.90
19363;DHT22;9817;50.80926400;5.16316200;2023-09-19T12:21:57;21.60;99.90
19363;DHT22;9817;50.80926400;5.16316200;2023-09-19T12:24:25;21.50;99.90
19363;DHT22;9817;50.80926400;5.16316200;2023-09-19T12:26:52;21.50;99.90
19363;DHT22;9817;50.80926400;5.16316200;2023-09-19T12:29:21;21.50;99.90
19363;DHT22;9817;50.80926400;5.16316200;2023-09-19T12:31:57;21.50;99.90
19363;DHT22;9817;50.80926400;5.16316200;2023-09-19T12:34:27;21.40;99.90
19363;DHT22;9817;50.80926400;5.16316200;2023-09-19T12:37:15;21.30;99.90
19363;DHT22;9817;50.80926400;5.16316200;2023-09-19T12:39:46;21.30;99.90
19363;DHT22;9817;50.80926400;5.16316200;2023-09-19T12:42:19;21.20;99.90
19363;DHT22;9817;50.80926400;5.16316200;2023-09-19T12:44:46;21.00;99.90
19363;DHT22;9817;50.80926400;5.16316200;2023-09-19T12:47:15;21.10;99.90
19363;DHT22;9817;50.80926400;5.16316200;2023-09-19T12:50:06;21.20;99.90
19363;DHT22;9817;50.80926400;5.16316200;2023-09-19T12:52:52;21.20;99.90
19363;DHT22;9817;50.80926400;5.16316200;2023-09-19T12:55:31;21.30;99.90
19363;DHT22;9817;50.80926400;5.16316200;2023-09-19T12:58:09;21.20;99.90
19363;DHT22;9817;50.80926400;5.16316200;2023-09-19T13:00:38;21.20;99.90
19363;DHT22;9817;50.80926400;5.16316200;2023-09-19T13:05:50;21.40;99.90
19363;DHT22;9817;50.80926400;5.16316200;2023-09-19T13:08:21;21.30;99.90
19363;DHT22;9817;50.80926400;5.16316200;2023-09-19T13:11:01;20.90;99.90
19363;DHT22;9817;50.80926400;5.16316200;2023-09-19T13:13:27;20.90;99.90
19363;DHT22;9817;50.80926400;5.16316200;2023-09-19T13:15:53;21.00;99.90
19363;DHT22;9817;50.80926400;5.16316200;2023-09-19T13:18:19;21.00;99.90
19363;DHT22;9817;50.80926400;5.16316200;2023-09-19T13:21:08;21.10;99.90
19363;DHT22;9817;50.80926400;5.16316200;2023-09-19T13:23:51;21.10;99.90
19363;DHT22;9817;50.80926400;5.16316200;2023-09-19T13:26:18;20.90;99.90
19363;DHT22;9817;50.80926400;5.16316200;2023-09-19T13:28:44;21.00;99.90
19363;DHT22;9817;50.80926400;5.16316200;2023-09-19T13:31:10;21.10;99.90
19363;DHT22;9817;50.80926400;5.16316200;2023-09-19T13:33:47;21.10;99.90
19363;DHT22;9817;50.80926400;5.16316200;2023-09-19T13:36:13;21.30;99.90
19363;DHT22;9817;50.80926400;5.16316200;2023-09-19T13:38:42;21.30;99.90
19363;DHT22;9817;50.80926400;5.16316200;2023-09-19T13:41:14;21.40;99.90
19363;DHT22;9817;50.80926400;5.16316200;2023-09-19T13:43:39;21.50;99.90
19363;DHT22;9817;50.80926400;5.16316200;2023-09-19T13:46:05;21.40;99.90
19363;DHT22;9817;50.80926400;5.16316200;2023-09-19T13:48:37;21.40;99.90
19363;DHT22;9817;50.80926400;5.16316200;2023-09-19T13:51:04;21.30;99.90
19363;DHT22;9817;50.80926400;5.16316200;2023-09-19T13:53:30;21.30;99.90
19363;DHT22;9817;50.80926400;5.16316200;2023-09-19T13:55:55;21.40;99.90
19363;DHT22;9817;50.80926400;5.16316200;2023-09-19T13:58:21;21.50;99.90
19363;DHT22;9817;50.80926400;5.16316200;2023-09-19T14:00:48;21.30;99.90
19363;DHT22;9817;50.80926400;5.16316200;2023-09-19T14:03:14;21.30;99.90
19363;DHT22;9817;50.80926400;5.16316200;2023-09-19T14:05:40;21.20;99.90
19363;DHT22;9817;50.80926400;5.16316200;2023-09-19T14:08:07;21.30;99.90
19363;DHT22;9817;50.80926400;5.16316200;2023-09-19T14:10:34;21.50;99.90
19363;DHT22;9817;50.80926400;5.16316200;2023-09-19T14:13:00;21.50;99.90
19363;DHT22;9817;50.80926400;5.16316200;2023-09-19T14:15:27;21.30;99.90
19363;DHT22;9817;50.80926400;5.16316200;2023-09-19T14:17:58;21.00;99.90
19363;DHT22;9817;50.80926400;5.16316200;2023-09-19T14:20:25;20.90;99.90
19363;DHT22;9817;50.80926400;5.16316200;2023-09-19T14:22:53;21.00;99.90
19363;DHT22;9817;50.80926400;5.16316200;2023-09-19T14:25:19;20.90;99.90
19363;DHT22;9817;50.80926400;5.16316200;2023-09-19T14:27:44;20.90;99.90
19363;DHT22;9817;50.80926400;5.16316200;2023-09-19T14:30:11;20.90;99.90
19363;DHT22;9817;50.80926400;5.16316200;2023-09-19T14:32:36;20.70;99.90
19363;DHT22;9817;50.80926400;5.16316200;2023-09-19T14:35:03;20.70;99.90